createdAt,value
2018-08-09T00:01:24.461Z,24.50
2018-08-09T00:03:53.170Z,24.60
2018-08-09T00:06:21.564Z,24.60
2018-08-09T00:08:49.966Z,24.70
2018-08-09T00:11:18.293Z,24.70
2018-08-09T00:13:46.678Z,24.70
2018-08-09T00:16:15.022Z,24.70
2018-08-09T00:18:43.382Z,24.70
2018-08-09T00:21:11.745Z,24.60
2018-08-09T00:23:40.093Z,24.70
2018-08-09T00:26:08.480Z,24.60
2018-08-09T00:28:36.771Z,24.60
2018-08-09T00:31:05.134Z,24.50
2018-08-09T00:33:33.467Z,24.30
2018-08-09T00:36:01.946Z,24.30
2018-08-09T00:38:30.282Z,24.30
2018-08-09T00:40:58.618Z,24.40
2018-08-09T00:43:26.913Z,24.30
2018-08-09T00:45:55.233Z,24.20
2018-08-09T00:48:23.621Z,24.30
2018-08-09T00:50:52.024Z,24.30
2018-08-09T00:53:20.359Z,24.30
2018-08-09T00:55:48.736Z,24.30
2018-08-09T00:58:17.077Z,24.30
2018-08-09T01:00:45.714Z,24.40
2018-08-09T01:03:14.037Z,24.40
2018-08-09T01:05:42.302Z,24.40
2018-08-09T01:08:10.645Z,24.40
2018-08-09T01:10:39.707Z,24.40
2018-08-09T01:13:08.073Z,24.40
2018-08-09T01:15:36.417Z,24.40
2018-08-09T01:18:06.485Z,24.40
2018-08-09T01:20:34.791Z,24.30
2018-08-09T01:23:03.220Z,24.30
2018-08-09T01:25:31.498Z,24.30
2018-08-09T01:27:59.832Z,24.30
2018-08-09T01:30:28.149Z,24.20
2018-08-09T01:32:56.624Z,24.20
2018-08-09T01:35:25.007Z,24.10
2018-08-09T01:37:53.358Z,24.10
2018-08-09T01:40:21.654Z,24.10
2018-08-09T01:43:07.153Z,24.10
2018-08-09T01:45:35.524Z,24.10
2018-08-09T01:48:03.957Z,24.10
2018-08-09T01:50:33.008Z,24.10
2018-08-09T01:53:01.365Z,24.10
2018-08-09T01:55:29.746Z,24.10
2018-08-09T01:58:04.868Z,24.10
2018-08-09T02:00:33.212Z,24.10
2018-08-09T02:03:01.615Z,24.20
2018-08-09T02:05:29.994Z,24.20
2018-08-09T02:07:58.338Z,24.30
2018-08-09T02:10:26.661Z,24.30
2018-08-09T02:12:55.032Z,24.30
2018-08-09T02:15:23.390Z,24.30
2018-08-09T02:17:51.650Z,24.30
2018-08-09T02:20:19.944Z,24.30
2018-08-09T02:22:48.256Z,24.30
2018-08-09T02:25:16.602Z,24.30
2018-08-09T02:27:44.889Z,24.30
2018-08-09T02:30:13.226Z,24.30
2018-08-09T02:32:41.531Z,24.10
2018-08-09T02:35:09.862Z,24.20
2018-08-09T02:37:38.166Z,24.10
2018-08-09T02:40:06.577Z,24.10
2018-08-09T02:42:34.958Z,24.10
2018-08-09T02:45:03.340Z,24.10
2018-08-09T02:47:31.651Z,24.00
2018-08-09T02:50:00.021Z,23.90
2018-08-09T02:52:28.362Z,23.80
2018-08-09T02:54:56.773Z,23.80
2018-08-09T02:57:25.100Z,23.70
2018-08-09T02:59:53.393Z,23.70
2018-08-09T03:02:21.741Z,23.70
2018-08-09T03:04:50.016Z,23.60
2018-08-09T03:07:18.351Z,23.50
2018-08-09T03:09:46.694Z,23.50
2018-08-09T03:12:15.008Z,23.40
2018-08-09T03:14:43.305Z,23.30
2018-08-09T03:17:11.667Z,23.30
2018-08-09T03:19:39.985Z,23.40
2018-08-09T03:22:08.293Z,23.30
2018-08-09T03:24:36.589Z,23.20
2018-08-09T03:27:04.941Z,23.20
2018-08-09T03:29:33.221Z,23.20
2018-08-09T03:32:01.564Z,23.10
2018-08-09T03:34:29.980Z,23.10
2018-08-09T03:36:58.420Z,23.10
2018-08-09T03:39:26.740Z,23.20
2018-08-09T03:41:55.072Z,23.10
2018-08-09T03:44:23.908Z,23.20
2018-08-09T03:46:52.318Z,23.20
2018-08-09T03:49:20.693Z,23.20
2018-08-09T03:51:49.042Z,23.30
2018-08-09T03:54:17.333Z,23.30
2018-08-09T03:56:45.767Z,23.40
2018-08-09T03:59:14.208Z,23.40
2018-08-09T04:01:42.572Z,23.40
2018-08-09T04:04:10.992Z,23.30
2018-08-09T04:06:39.310Z,23.30
2018-08-09T04:09:09.825Z,23.20
2018-08-09T04:11:38.384Z,23.30
2018-08-09T04:14:06.928Z,23.20
2018-08-09T04:16:35.353Z,23.10
2018-08-09T04:19:03.664Z,23.10
2018-08-09T04:21:31.996Z,23.10
2018-08-09T04:24:00.489Z,23.00
2018-08-09T04:26:28.909Z,23.00
2018-08-09T04:28:57.241Z,23.00
2018-08-09T04:31:25.565Z,22.90
2018-08-09T04:33:53.936Z,23.00
2018-08-09T04:36:22.341Z,22.90
2018-08-09T04:38:50.645Z,23.00
2018-08-09T04:41:18.980Z,23.00
2018-08-09T04:43:47.340Z,23.00
2018-08-09T04:46:15.825Z,23.00
2018-08-09T04:48:44.145Z,23.10
2018-08-09T04:51:12.445Z,23.10
2018-08-09T04:53:40.762Z,23.10
2018-08-09T04:56:09.096Z,23.10
2018-08-09T04:58:37.433Z,23.00
2018-08-09T05:01:05.770Z,23.00
2018-08-09T05:03:34.130Z,22.90
2018-08-09T05:06:02.770Z,23.00
2018-08-09T05:08:31.370Z,23.00
2018-08-09T05:10:59.764Z,22.90
2018-08-09T05:13:28.048Z,22.90
2018-08-09T05:15:56.481Z,23.00
2018-08-09T05:18:24.751Z,23.10
2018-08-09T05:20:53.145Z,23.10
2018-08-09T05:23:21.469Z,23.20
2018-08-09T05:25:49.775Z,23.10
2018-08-09T05:28:18.258Z,23.20
2018-08-09T05:30:46.654Z,23.20
2018-08-09T05:33:15.015Z,23.10
2018-08-09T05:35:43.405Z,22.90
2018-08-09T05:38:11.707Z,22.90
2018-08-09T05:40:40.035Z,22.90
2018-08-09T05:43:08.480Z,23.10
2018-08-09T05:45:36.846Z,23.20
2018-08-09T05:48:05.577Z,23.20
2018-08-09T05:50:33.995Z,23.30
2018-08-09T05:53:02.577Z,23.30
2018-08-09T05:55:30.956Z,23.40
2018-08-09T05:57:59.350Z,23.50
2018-08-09T06:00:27.705Z,23.50
2018-08-09T06:02:56.056Z,23.60
2018-08-09T06:05:24.430Z,23.70
2018-08-09T06:07:52.770Z,23.70
2018-08-09T06:10:21.099Z,23.80
2018-08-09T06:12:49.456Z,23.80
2018-08-09T06:15:17.849Z,23.80
2018-08-09T06:17:46.141Z,23.90
2018-08-09T06:20:14.476Z,23.90
2018-08-09T06:22:43.158Z,23.90
2018-08-09T06:25:11.510Z,24.00
2018-08-09T06:27:39.959Z,24.00
2018-08-09T06:30:10.065Z,24.00
2018-08-09T06:32:38.888Z,24.00
2018-08-09T06:35:09.073Z,24.00
2018-08-09T06:37:37.667Z,23.90
2018-08-09T06:40:10.748Z,23.80
2018-08-09T06:42:39.381Z,24.00
2018-08-09T06:45:07.857Z,24.00
2018-08-09T06:47:36.311Z,24.10
2018-08-09T06:50:05.839Z,24.20
2018-08-09T06:52:34.139Z,24.10
2018-08-09T06:55:02.689Z,24.20
2018-08-09T06:57:31.162Z,24.40
2018-08-09T06:59:59.551Z,24.50
2018-08-09T07:02:27.930Z,24.50
2018-08-09T07:04:56.409Z,24.40
2018-08-09T07:07:24.774Z,24.40
2018-08-09T07:09:53.125Z,24.40
2018-08-09T07:12:21.431Z,24.40
2018-08-09T07:14:49.934Z,24.50
2018-08-09T07:17:18.288Z,24.60
2018-08-09T07:19:46.653Z,24.70
2018-08-09T07:22:15.021Z,24.80
2018-08-09T07:24:43.361Z,24.80
2018-08-09T07:27:11.708Z,24.90
2018-08-09T07:29:40.128Z,24.90
2018-08-09T07:32:08.603Z,25.00
2018-08-09T07:34:36.959Z,25.10
2018-08-09T07:37:05.464Z,25.20
2018-08-09T07:39:33.899Z,25.20
2018-08-09T07:42:02.309Z,25.40
2018-08-09T07:44:30.655Z,25.50
2018-08-09T07:46:59.040Z,25.60
2018-08-09T07:49:27.433Z,25.70
2018-08-09T07:51:55.828Z,25.80
2018-08-09T07:54:24.252Z,26.00
2018-08-09T07:56:52.638Z,26.00
2018-08-09T07:59:21.013Z,26.20
2018-08-09T08:01:49.402Z,26.30
2018-08-09T08:04:17.889Z,26.40
2018-08-09T08:06:46.243Z,26.50
2018-08-09T08:09:14.621Z,26.60
2018-08-09T08:11:42.954Z,26.70
2018-08-09T08:14:11.264Z,26.80
2018-08-09T08:16:39.655Z,26.80
2018-08-09T08:19:08.021Z,26.90
2018-08-09T08:21:36.450Z,27.00
2018-08-09T08:24:05.095Z,27.00
2018-08-09T08:26:33.509Z,27.00
2018-08-09T08:29:01.885Z,27.10
2018-08-09T08:31:30.281Z,27.20
2018-08-09T08:33:58.645Z,27.20
2018-08-09T08:36:27.038Z,27.30
2018-08-09T08:38:55.408Z,27.30
2018-08-09T08:41:23.842Z,27.30
2018-08-09T08:43:52.275Z,27.40
2018-08-09T08:46:20.696Z,27.50
2018-08-09T08:48:49.049Z,27.60
2018-08-09T08:51:17.502Z,27.60
2018-08-09T08:53:46.016Z,27.70
2018-08-09T08:56:14.377Z,27.70
2018-08-09T08:58:42.740Z,27.80
2018-08-09T09:01:11.086Z,27.90
2018-08-09T09:03:39.471Z,27.80
2018-08-09T09:06:07.860Z,27.90
2018-08-09T09:08:36.206Z,28.00
2018-08-09T09:11:04.542Z,28.10
2018-08-09T09:13:32.894Z,28.20
2018-08-09T09:16:01.308Z,28.30
2018-08-09T09:18:29.652Z,28.40
2018-08-09T09:20:58.105Z,28.50
2018-08-09T09:23:26.411Z,28.50
2018-08-09T09:25:54.777Z,28.50
2018-08-09T09:28:23.077Z,28.60
2018-08-09T09:30:51.417Z,28.70
2018-08-09T09:33:19.833Z,28.80
2018-08-09T09:35:48.172Z,28.80
2018-08-09T09:38:16.554Z,28.90
2018-08-09T09:40:44.933Z,29.00
2018-08-09T09:43:13.288Z,29.00
2018-08-09T09:45:41.733Z,28.90
2018-08-09T09:48:10.210Z,29.10
2018-08-09T09:50:39.580Z,29.20
2018-08-09T09:53:07.966Z,29.20
2018-08-09T09:55:36.372Z,29.30
2018-08-09T09:58:04.864Z,29.30
2018-08-09T10:00:38.578Z,29.30
2018-08-09T10:03:06.928Z,29.20
2018-08-09T10:05:35.298Z,29.30
2018-08-09T10:08:03.597Z,29.10
2018-08-09T10:10:32.070Z,29.00
2018-08-09T10:13:00.457Z,29.00
2018-08-09T10:15:28.733Z,29.10
2018-08-09T10:17:57.092Z,29.20
2018-08-09T10:20:25.412Z,29.10
2018-08-09T10:22:53.745Z,29.20
2018-08-09T10:25:22.129Z,29.30
2018-08-09T10:27:50.474Z,29.40
2018-08-09T10:30:18.801Z,29.50
2018-08-09T10:32:47.205Z,29.60
2018-08-09T10:35:15.613Z,29.60
2018-08-09T10:37:43.953Z,29.70
2018-08-09T10:40:13.842Z,29.70
2018-08-09T10:42:42.190Z,29.70
2018-08-09T10:45:10.567Z,29.80
2018-08-09T10:47:38.963Z,29.70
2018-08-09T10:50:07.382Z,29.60
2018-08-09T10:52:35.709Z,29.60
2018-08-09T10:55:04.380Z,29.70
2018-08-09T10:57:32.744Z,29.80
2018-08-09T11:00:01.213Z,29.90
2018-08-09T11:02:29.603Z,30.00
2018-08-09T11:04:57.985Z,30.10
2018-08-09T11:07:26.300Z,30.10
2018-08-09T11:09:54.643Z,30.30
2018-08-09T11:12:23.055Z,30.30
2018-08-09T11:14:51.474Z,30.40
2018-08-09T11:17:19.843Z,30.50
2018-08-09T11:19:48.156Z,30.50
2018-08-09T11:22:18.432Z,30.70
2018-08-09T11:24:47.145Z,30.80
2018-08-09T11:27:15.537Z,30.80
2018-08-09T11:29:43.919Z,30.80
2018-08-09T11:32:12.246Z,30.80
2018-08-09T11:34:40.522Z,30.80
2018-08-09T11:37:08.942Z,30.80
2018-08-09T11:39:37.355Z,30.90
2018-08-09T11:42:05.709Z,31.00
2018-08-09T11:44:34.096Z,31.10
2018-08-09T11:47:02.659Z,31.20
2018-08-09T11:49:31.017Z,31.20
2018-08-09T11:51:59.379Z,31.20
2018-08-09T11:54:27.788Z,31.30
2018-08-09T11:56:56.175Z,31.30
2018-08-09T11:59:24.537Z,31.40
2018-08-09T12:01:52.883Z,31.50
2018-08-09T12:04:21.231Z,31.50
2018-08-09T12:06:49.569Z,31.40
2018-08-09T12:09:17.978Z,31.40
2018-08-09T12:11:46.328Z,31.40
2018-08-09T12:14:14.674Z,31.50
2018-08-09T12:16:43.038Z,31.60
2018-08-09T12:19:11.442Z,31.60
2018-08-09T12:21:40.057Z,31.70
2018-08-09T12:24:08.419Z,31.80
2018-08-09T12:26:36.965Z,31.80
2018-08-09T12:29:05.354Z,31.90
2018-08-09T12:31:33.901Z,32.10
2018-08-09T12:34:02.413Z,32.10
2018-08-09T12:36:30.912Z,32.20
2018-08-09T12:38:59.253Z,32.10
2018-08-09T12:41:27.616Z,32.10
2018-08-09T12:43:56.012Z,32.10
2018-08-09T12:46:24.533Z,32.20
2018-08-09T12:48:53.257Z,32.20
2018-08-09T12:51:22.285Z,32.20
2018-08-09T12:53:50.664Z,32.20
2018-08-09T12:56:19.061Z,32.30
2018-08-09T12:58:47.470Z,32.40
2018-08-09T13:01:15.876Z,32.50
2018-08-09T13:03:44.370Z,32.60
2018-08-09T13:06:12.800Z,32.60
2018-08-09T13:08:41.174Z,32.60
2018-08-09T13:11:09.694Z,32.80
2018-08-09T13:13:38.215Z,32.90
2018-08-09T13:16:06.644Z,33.00
2018-08-09T13:18:35.000Z,33.00
2018-08-09T13:21:03.328Z,32.80
2018-08-09T13:23:31.975Z,32.90
2018-08-09T13:26:00.364Z,32.90
2018-08-09T13:28:28.749Z,32.90
2018-08-09T13:30:57.109Z,32.80
2018-08-09T13:33:25.554Z,32.60
2018-08-09T13:35:53.942Z,31.00
2018-08-09T13:38:22.357Z,29.50
2018-08-09T13:40:50.813Z,28.50
2018-08-09T13:43:19.380Z,27.70
2018-08-09T13:45:47.866Z,27.40
2018-08-09T13:48:16.274Z,27.40
2018-08-09T13:50:44.676Z,27.20
2018-08-09T13:53:13.041Z,26.90
2018-08-09T13:55:41.509Z,25.50
2018-08-09T13:58:09.994Z,25.40
2018-08-09T14:00:38.366Z,25.20
2018-08-09T14:03:06.917Z,25.00
2018-08-09T14:05:35.365Z,25.10
2018-08-09T14:08:03.813Z,25.00
2018-08-09T14:10:32.345Z,24.90
2018-08-09T14:13:00.727Z,25.20
2018-08-09T14:15:29.134Z,25.00
2018-08-09T14:17:57.525Z,25.00
2018-08-09T14:20:25.965Z,25.20
2018-08-09T14:22:54.421Z,25.20
2018-08-09T14:25:22.789Z,25.20
2018-08-09T14:27:51.169Z,25.20
2018-08-09T14:30:19.565Z,25.40
2018-08-09T14:32:47.941Z,25.60
2018-08-09T14:35:16.857Z,25.80
2018-08-09T14:37:45.888Z,26.00
2018-08-09T14:40:15.169Z,26.30
2018-08-09T14:42:43.505Z,26.20
2018-08-09T14:45:19.771Z,26.40
2018-08-09T14:47:48.318Z,26.30
2018-08-09T14:50:17.341Z,26.40
2018-08-09T14:52:45.837Z,26.60
2018-08-09T14:55:14.237Z,26.60
2018-08-09T14:57:43.041Z,26.60
2018-08-09T15:00:14.988Z,26.50
2018-08-09T15:02:44.261Z,26.50
2018-08-09T15:05:12.915Z,26.40
2018-08-09T15:07:41.932Z,26.30
2018-08-09T15:10:10.380Z,26.30
2018-08-09T15:12:38.833Z,26.10
2018-08-09T15:15:09.513Z,25.70
2018-08-09T15:17:38.095Z,25.80
2018-08-09T15:20:10.795Z,25.80
2018-08-09T15:22:39.282Z,25.50
2018-08-09T15:25:09.209Z,25.40
2018-08-09T15:27:37.658Z,25.60
2018-08-09T15:30:14.645Z,25.10
2018-08-09T15:32:43.134Z,25.10
2018-08-09T15:35:11.661Z,25.10
2018-08-09T15:37:40.169Z,25.30
2018-08-09T15:40:09.943Z,25.10
2018-08-09T15:42:38.603Z,25.00
2018-08-09T15:45:09.632Z,25.10
2018-08-09T15:47:38.800Z,25.20
2018-08-09T15:50:10.799Z,25.20
2018-08-09T15:52:39.379Z,25.10
2018-08-09T15:55:08.250Z,25.10
2018-08-09T15:57:36.673Z,25.40
2018-08-09T16:00:17.853Z,25.70
2018-08-09T16:02:46.484Z,25.70
2018-08-09T16:05:14.954Z,26.00
2018-08-09T16:07:43.550Z,26.30
2018-08-09T16:10:13.980Z,26.10
2018-08-09T16:12:42.619Z,26.10
2018-08-09T16:15:14.306Z,26.30
2018-08-09T16:17:44.923Z,26.50
2018-08-09T16:20:13.415Z,26.60
2018-08-09T16:22:42.764Z,26.50
2018-08-09T16:25:14.626Z,26.50
2018-08-09T16:27:43.325Z,26.70
2018-08-09T16:30:22.230Z,26.60
2018-08-09T16:32:50.738Z,26.30
2018-08-09T16:35:19.422Z,26.30
2018-08-09T16:37:48.082Z,26.30
2018-08-09T16:40:20.738Z,26.40
2018-08-09T16:42:49.531Z,26.50
2018-08-09T16:45:19.357Z,26.50
2018-08-09T16:47:48.723Z,26.50
2018-08-09T16:50:19.946Z,26.50
2018-08-09T16:52:49.906Z,26.50
2018-08-09T16:55:20.002Z,26.50
2018-08-09T16:57:48.509Z,26.40
2018-08-09T17:00:22.870Z,26.40
2018-08-09T17:02:53.293Z,26.50
2018-08-09T17:05:23.670Z,26.60
2018-08-09T17:07:52.293Z,26.60
2018-08-09T17:10:22.868Z,26.40
2018-08-09T17:12:51.455Z,26.40
2018-08-09T17:15:24.944Z,26.50
2018-08-09T17:17:54.530Z,26.50
2018-08-09T17:20:25.795Z,26.50
2018-08-09T17:22:54.680Z,26.20
2018-08-09T17:25:23.331Z,25.90
2018-08-09T17:27:51.952Z,25.80
2018-08-09T17:30:23.358Z,25.70
2018-08-09T17:32:52.020Z,25.50
2018-08-09T17:35:20.923Z,25.40
2018-08-09T17:37:49.644Z,25.20
2018-08-09T17:40:24.824Z,25.10
2018-08-09T17:42:54.230Z,25.10
2018-08-09T17:45:27.400Z,24.90
2018-08-09T17:47:55.890Z,24.70
2018-08-09T17:50:24.543Z,24.50
2018-08-09T17:52:53.764Z,24.50
2018-08-09T17:55:22.262Z,24.40
2018-08-09T17:57:50.633Z,24.30
2018-08-09T18:00:23.669Z,24.20
2018-08-09T18:02:53.190Z,24.20
2018-08-09T18:05:21.598Z,24.20
2018-08-09T18:07:50.565Z,24.30
2018-08-09T18:10:23.082Z,24.30
2018-08-09T18:12:51.665Z,24.30
2018-08-09T18:15:20.964Z,24.10
2018-08-09T18:17:49.821Z,24.10
2018-08-09T18:20:19.833Z,24.10
2018-08-09T18:22:48.321Z,24.20
2018-08-09T18:25:16.818Z,24.30
2018-08-09T18:27:45.359Z,24.40
2018-08-09T18:30:16.321Z,24.40
2018-08-09T18:32:45.083Z,24.40
2018-08-09T18:35:15.968Z,24.30
2018-08-09T18:37:44.597Z,24.40
2018-08-09T18:40:21.841Z,24.40
2018-08-09T18:42:50.294Z,24.40
2018-08-09T18:45:19.235Z,24.40
2018-08-09T18:47:47.835Z,24.20
2018-08-09T18:50:20.297Z,24.20
2018-08-09T18:52:48.858Z,24.00
2018-08-09T18:55:18.563Z,23.90
2018-08-09T18:57:47.590Z,24.00
2018-08-09T19:00:17.680Z,24.10
2018-08-09T19:02:47.074Z,24.10
2018-08-09T19:05:16.870Z,24.10
2018-08-09T19:07:45.492Z,24.00
2018-08-09T19:10:18.111Z,24.00
2018-08-09T19:12:46.646Z,24.10
2018-08-09T19:15:15.260Z,24.10
2018-08-09T19:17:44.009Z,24.20
2018-08-09T19:20:17.578Z,24.10
2018-08-09T19:22:47.046Z,23.80
2018-08-09T19:25:15.609Z,23.80
2018-08-09T19:27:44.175Z,23.80
2018-08-09T19:30:14.726Z,23.90
2018-08-09T19:32:43.316Z,24.00
2018-08-09T19:35:14.038Z,24.00
2018-08-09T19:37:42.541Z,24.10
2018-08-09T19:40:14.954Z,24.10
2018-08-09T19:42:43.453Z,24.10
2018-08-09T19:45:14.493Z,23.90
2018-08-09T19:47:43.147Z,23.70
2018-08-09T19:50:14.399Z,23.50
2018-08-09T19:52:42.841Z,23.20
2018-08-09T19:55:13.555Z,23.00
2018-08-09T19:57:43.292Z,23.00
2018-08-09T20:00:17.569Z,22.80
2018-08-09T20:02:46.991Z,22.70
2018-08-09T20:05:15.618Z,22.70
2018-08-09T20:07:44.188Z,22.80
2018-08-09T20:10:14.550Z,23.00
2018-08-09T20:12:44.039Z,23.10
2018-08-09T20:15:15.716Z,23.20
2018-08-09T20:17:45.045Z,23.20
2018-08-09T20:20:15.483Z,23.40
2018-08-09T20:22:44.064Z,23.50
2018-08-09T20:25:13.160Z,23.40
2018-08-09T20:27:42.945Z,23.30
2018-08-09T20:30:13.699Z,23.30
2018-08-09T20:32:42.815Z,23.40
2018-08-09T20:35:21.509Z,23.40
2018-08-09T20:37:50.466Z,23.40
2018-08-09T20:40:19.854Z,23.50
2018-08-09T20:42:49.513Z,23.50
2018-08-09T20:45:19.349Z,23.40
2018-08-09T20:47:47.897Z,23.40
2018-08-09T20:50:21.618Z,23.40
2018-08-09T20:52:50.525Z,23.40
2018-08-09T20:55:19.042Z,23.40
2018-08-09T20:57:48.360Z,23.40
2018-08-09T21:00:21.517Z,23.40
2018-08-09T21:02:51.228Z,23.40
2018-08-09T21:05:23.746Z,23.00
2018-08-09T21:07:53.066Z,23.10
2018-08-09T21:10:22.011Z,23.10
2018-08-09T21:12:50.486Z,23.00
2018-08-09T21:15:19.434Z,23.00
2018-08-09T21:17:47.957Z,23.00
2018-08-09T21:20:16.546Z,23.10
2018-08-09T21:22:46.234Z,23.20
2018-08-09T21:25:14.779Z,23.10
2018-08-09T21:27:43.774Z,23.00
2018-08-09T21:30:22.824Z,23.10
2018-08-09T21:32:51.584Z,23.10
2018-08-09T21:35:20.133Z,23.00
2018-08-09T21:37:48.592Z,23.00
2018-08-09T21:40:16.992Z,23.00
2018-08-09T21:42:45.565Z,23.00
2018-08-09T21:45:16.695Z,23.10
2018-08-09T21:47:45.242Z,23.10
2018-08-09T21:50:16.726Z,23.10
2018-08-09T21:52:45.161Z,23.20
2018-08-09T21:55:14.029Z,23.20
2018-08-09T21:57:43.438Z,23.20
2018-08-09T22:00:59.847Z,23.00
2018-08-09T22:03:32.159Z,23.10
2018-08-09T22:06:06.134Z,22.80
2018-08-09T22:08:40.322Z,22.90
2018-08-09T22:11:16.085Z,22.90
2018-08-09T22:13:50.291Z,23.00
2018-08-09T22:16:24.142Z,23.00
2018-08-09T22:18:58.243Z,23.00
2018-08-09T22:21:32.268Z,22.80
2018-08-09T22:24:00.642Z,22.70
2018-08-09T22:26:29.117Z,22.80
2018-08-09T22:28:57.596Z,22.90
2018-08-09T22:31:26.014Z,23.00
2018-08-09T22:33:54.710Z,23.00
2018-08-09T22:36:23.158Z,23.10
2018-08-09T22:38:51.645Z,23.10
2018-08-09T22:41:20.081Z,23.10
2018-08-09T22:43:48.668Z,23.10
2018-08-09T22:46:17.174Z,22.80
2018-08-09T22:48:45.637Z,22.80
2018-08-09T22:51:14.138Z,22.90
2018-08-09T22:53:42.715Z,22.60
2018-08-09T22:56:14.048Z,22.40
2018-08-09T22:58:42.465Z,22.30
2018-08-09T23:01:10.909Z,22.40
2018-08-09T23:03:39.406Z,22.50
2018-08-09T23:06:08.364Z,22.50
2018-08-09T23:08:36.905Z,22.60
2018-08-09T23:11:05.345Z,22.50
2018-08-09T23:13:33.708Z,22.50
2018-08-09T23:16:02.170Z,22.50
2018-08-09T23:18:30.605Z,22.60
2018-08-09T23:20:59.046Z,22.60
2018-08-09T23:23:27.434Z,22.50
2018-08-09T23:25:56.492Z,22.60
2018-08-09T23:28:24.977Z,22.60
2018-08-09T23:30:53.416Z,22.30
2018-08-09T23:33:23.380Z,22.30
2018-08-09T23:35:51.845Z,22.30
2018-08-09T23:38:20.273Z,22.10
2018-08-09T23:40:48.640Z,21.80
2018-08-09T23:43:17.050Z,21.70
2018-08-09T23:45:45.400Z,21.60
2018-08-09T23:48:13.845Z,21.70
2018-08-09T23:50:42.189Z,21.50
2018-08-09T23:53:10.618Z,21.30
2018-08-09T23:55:38.991Z,21.30
2018-08-09T23:58:07.457Z,21.30
